sensor_id;sensor_type;location;lat;lon;timestamp;P1;durP1;ratioP1;P2;durP2;ratioP2
41927;SDS011;27616;51.420;6.788;2023-05-07T00:00:12;5.95;;;2.08;;
41927;SDS011;27616;51.420;6.788;2023-05-07T00:02:40;2.95;;;1.55;;
41927;SDS011;27616;51.420;6.788;2023-05-07T00:05:06;2.28;;;1.52;;
41927;SDS011;27616;51.420;6.788;2023-05-07T00:07:32;6.35;;;2.25;;
41927;SDS011;27616;51.420;6.788;2023-05-07T00:09:58;6.30;;;2.50;;
41927;SDS011;27616;51.420;6.788;2023-05-07T00:12:23;3.75;;;1.75;;
41927;SDS011;27616;51.420;6.788;2023-05-07T00:14:49;3.60;;;2.22;;
41927;SDS011;27616;51.420;6.788;2023-05-07T00:17:15;4.75;;;2.00;;
41927;SDS011;27616;51.420;6.788;2023-05-07T00:19:40;3.05;;;1.60;;
41927;SDS011;27616;51.420;6.788;2023-05-07T00:22:06;3.42;;;1.52;;
41927;SDS011;27616;51.420;6.788;2023-05-07T00:24:33;3.63;;;1.63;;
41927;SDS011;27616;51.420;6.788;2023-05-07T00:26:58;5.88;;;2.25;;
41927;SDS011;27616;51.420;6.788;2023-05-07T00:29:24;3.38;;;1.80;;
41927;SDS011;27616;51.420;6.788;2023-05-07T00:31:50;6.03;;;2.10;;
41927;SDS011;27616;51.420;6.788;2023-05-07T00:34:16;7.28;;;2.60;;
41927;SDS011;27616;51.420;6.788;2023-05-07T00:36:41;6.50;;;3.00;;
41927;SDS011;27616;51.420;6.788;2023-05-07T00:39:07;4.80;;;2.72;;
41927;SDS011;27616;51.420;6.788;2023-05-07T00:41:33;5.38;;;2.95;;
41927;SDS011;27616;51.420;6.788;2023-05-07T00:43:59;6.25;;;2.60;;
41927;SDS011;27616;51.420;6.788;2023-05-07T00:46:25;5.43;;;2.40;;
41927;SDS011;27616;51.420;6.788;2023-05-07T00:48:51;6.03;;;3.03;;
41927;SDS011;27616;51.420;6.788;2023-05-07T00:51:18;4.97;;;2.75;;
41927;SDS011;27616;51.420;6.788;2023-05-07T00:53:44;5.63;;;3.10;;
41927;SDS011;27616;51.420;6.788;2023-05-07T00:56:11;4.97;;;3.30;;
41927;SDS011;27616;51.420;6.788;2023-05-07T00:58:37;5.68;;;2.90;;
41927;SDS011;27616;51.420;6.788;2023-05-07T01:01:03;5.15;;;2.90;;
41927;SDS011;27616;51.420;6.788;2023-05-07T01:03:29;4.90;;;3.08;;
41927;SDS011;27616;51.420;6.788;2023-05-07T01:05:55;5.53;;;3.30;;
41927;SDS011;27616;51.420;6.788;2023-05-07T01:08:22;4.97;;;3.30;;
41927;SDS011;27616;51.420;6.788;2023-05-07T01:10:51;5.72;;;3.20;;
41927;SDS011;27616;51.420;6.788;2023-05-07T01:13:18;6.55;;;3.65;;
41927;SDS011;27616;51.420;6.788;2023-05-07T01:15:45;6.70;;;3.10;;
41927;SDS011;27616;51.420;6.788;2023-05-07T01:18:11;6.25;;;3.13;;
41927;SDS011;27616;51.420;6.788;2023-05-07T01:20:37;4.30;;;2.65;;
41927;SDS011;27616;51.420;6.788;2023-05-07T01:23:03;5.50;;;2.95;;
41927;SDS011;27616;51.420;6.788;2023-05-07T01:25:30;5.20;;;2.85;;
41927;SDS011;27616;51.420;6.788;2023-05-07T01:27:58;4.18;;;2.70;;
41927;SDS011;27616;51.420;6.788;2023-05-07T01:30:30;5.10;;;2.95;;
41927;SDS011;27616;51.420;6.788;2023-05-07T01:33:04;4.43;;;2.80;;
41927;SDS011;27616;51.420;6.788;2023-05-07T01:35:36;5.18;;;2.92;;
41927;SDS011;27616;51.420;6.788;2023-05-07T01:38:04;4.88;;;2.88;;
41927;SDS011;27616;51.420;6.788;2023-05-07T01:40:31;5.18;;;2.85;;
41927;SDS011;27616;51.420;6.788;2023-05-07T01:42:57;6.88;;;3.00;;
41927;SDS011;27616;51.420;6.788;2023-05-07T01:45:23;6.00;;;2.63;;
41927;SDS011;27616;51.420;6.788;2023-05-07T01:47:50;4.05;;;2.40;;
41927;SDS011;27616;51.420;6.788;2023-05-07T01:50:18;5.43;;;3.00;;
41927;SDS011;27616;51.420;6.788;2023-05-07T01:52:45;4.93;;;3.00;;
41927;SDS011;27616;51.420;6.788;2023-05-07T01:55:12;5.00;;;3.15;;
41927;SDS011;27616;51.420;6.788;2023-05-07T01:57:38;4.70;;;2.92;;
41927;SDS011;27616;51.420;6.788;2023-05-07T02:00:05;5.30;;;3.53;;
41927;SDS011;27616;51.420;6.788;2023-05-07T02:02:40;6.10;;;2.65;;
41927;SDS011;27616;51.420;6.788;2023-05-07T02:05:13;5.35;;;3.33;;
41927;SDS011;27616;51.420;6.788;2023-05-07T02:07:39;7.95;;;3.88;;
41927;SDS011;27616;51.420;6.788;2023-05-07T02:10:06;6.25;;;3.47;;
41927;SDS011;27616;51.420;6.788;2023-05-07T02:12:32;5.95;;;3.22;;
41927;SDS011;27616;51.420;6.788;2023-05-07T02:14:57;6.53;;;3.35;;
41927;SDS011;27616;51.420;6.788;2023-05-07T02:17:23;6.70;;;3.30;;
41927;SDS011;27616;51.420;6.788;2023-05-07T02:19:49;5.97;;;3.10;;
41927;SDS011;27616;51.420;6.788;2023-05-07T02:22:15;7.25;;;3.58;;
41927;SDS011;27616;51.420;6.788;2023-05-07T02:24:41;4.97;;;3.15;;
41927;SDS011;27616;51.420;6.788;2023-05-07T02:27:06;5.65;;;3.28;;
41927;SDS011;27616;51.420;6.788;2023-05-07T02:29:32;5.75;;;3.17;;
41927;SDS011;27616;51.420;6.788;2023-05-07T02:31:58;6.03;;;3.13;;
41927;SDS011;27616;51.420;6.788;2023-05-07T02:34:24;6.53;;;3.67;;
41927;SDS011;27616;51.420;6.788;2023-05-07T02:36:50;9.93;;;3.20;;
41927;SDS011;27616;51.420;6.788;2023-05-07T02:39:19;4.70;;;2.85;;
41927;SDS011;27616;51.420;6.788;2023-05-07T02:41:45;6.80;;;2.80;;
41927;SDS011;27616;51.420;6.788;2023-05-07T02:44:10;4.60;;;2.80;;
41927;SDS011;27616;51.420;6.788;2023-05-07T02:46:37;4.95;;;2.92;;
41927;SDS011;27616;51.420;6.788;2023-05-07T02:49:07;5.20;;;2.40;;
41927;SDS011;27616;51.420;6.788;2023-05-07T02:51:33;4.43;;;2.90;;
41927;SDS011;27616;51.420;6.788;2023-05-07T02:54:02;5.20;;;2.88;;
41927;SDS011;27616;51.420;6.788;2023-05-07T02:56:30;4.45;;;2.70;;
41927;SDS011;27616;51.420;6.788;2023-05-07T02:58:55;4.30;;;2.72;;
41927;SDS011;27616;51.420;6.788;2023-05-07T03:04:02;4.57;;;2.85;;
41927;SDS011;27616;51.420;6.788;2023-05-07T03:06:29;5.63;;;3.63;;
41927;SDS011;27616;51.420;6.788;2023-05-07T03:08:54;5.57;;;3.20;;
41927;SDS011;27616;51.420;6.788;2023-05-07T03:11:20;5.30;;;2.80;;
41927;SDS011;27616;51.420;6.788;2023-05-07T03:13:46;4.72;;;2.85;;
41927;SDS011;27616;51.420;6.788;2023-05-07T03:16:14;5.75;;;3.08;;
41927;SDS011;27616;51.420;6.788;2023-05-07T03:18:40;5.72;;;3.42;;
41927;SDS011;27616;51.420;6.788;2023-05-07T03:21:06;6.60;;;3.33;;
41927;SDS011;27616;51.420;6.788;2023-05-07T03:23:32;6.20;;;3.30;;
41927;SDS011;27616;51.420;6.788;2023-05-07T03:25:57;5.63;;;3.15;;
41927;SDS011;27616;51.420;6.788;2023-05-07T03:28:23;7.40;;;3.53;;
41927;SDS011;27616;51.420;6.788;2023-05-07T03:30:54;5.40;;;3.85;;
41927;SDS011;27616;51.420;6.788;2023-05-07T03:33:19;7.07;;;4.20;;
41927;SDS011;27616;51.420;6.788;2023-05-07T03:35:46;6.20;;;3.97;;
41927;SDS011;27616;51.420;6.788;2023-05-07T03:38:17;4.95;;;3.47;;
41927;SDS011;27616;51.420;6.788;2023-05-07T03:40:43;7.13;;;4.22;;
41927;SDS011;27616;51.420;6.788;2023-05-07T03:43:08;5.47;;;3.10;;
41927;SDS011;27616;51.420;6.788;2023-05-07T03:45:38;5.35;;;3.90;;
41927;SDS011;27616;51.420;6.788;2023-05-07T03:48:24;6.18;;;4.10;;
41927;SDS011;27616;51.420;6.788;2023-05-07T03:50:52;8.05;;;4.07;;
41927;SDS011;27616;51.420;6.788;2023-05-07T03:53:19;7.75;;;3.78;;
41927;SDS011;27616;51.420;6.788;2023-05-07T03:55:45;6.70;;;4.03;;
41927;SDS011;27616;51.420;6.788;2023-05-07T03:58:11;5.60;;;3.58;;
41927;SDS011;27616;51.420;6.788;2023-05-07T04:00:37;6.47;;;3.67;;
41927;SDS011;27616;51.420;6.788;2023-05-07T04:03:12;6.75;;;3.50;;
41927;SDS011;27616;51.420;6.788;2023-05-07T04:05:38;5.05;;;3.20;;
41927;SDS011;27616;51.420;6.788;2023-05-07T04:08:04;5.70;;;3.70;;
41927;SDS011;27616;51.420;6.788;2023-05-07T04:10:37;6.13;;;3.30;;
41927;SDS011;27616;51.420;6.788;2023-05-07T04:13:07;5.85;;;3.28;;
41927;SDS011;27616;51.420;6.788;2023-05-07T04:15:34;6.68;;;3.70;;
41927;SDS011;27616;51.420;6.788;2023-05-07T04:18:00;6.82;;;4.10;;
41927;SDS011;27616;51.420;6.788;2023-05-07T04:20:26;6.57;;;4.13;;
41927;SDS011;27616;51.420;6.788;2023-05-07T04:22:58;8.02;;;4.95;;
41927;SDS011;27616;51.420;6.788;2023-05-07T04:25:25;8.77;;;4.82;;
41927;SDS011;27616;51.420;6.788;2023-05-07T04:27:54;8.10;;;5.53;;
41927;SDS011;27616;51.420;6.788;2023-05-07T04:30:21;7.13;;;4.88;;
41927;SDS011;27616;51.420;6.788;2023-05-07T04:32:47;8.45;;;4.50;;
41927;SDS011;27616;51.420;6.788;2023-05-07T04:35:13;5.93;;;3.85;;
41927;SDS011;27616;51.420;6.788;2023-05-07T04:37:40;7.03;;;4.65;;
41927;SDS011;27616;51.420;6.788;2023-05-07T04:40:06;6.20;;;4.45;;
41927;SDS011;27616;51.420;6.788;2023-05-07T04:42:32;6.75;;;3.95;;
41927;SDS011;27616;51.420;6.788;2023-05-07T04:45:01;6.55;;;3.78;;
41927;SDS011;27616;51.420;6.788;2023-05-07T04:47:28;7.57;;;3.80;;
41927;SDS011;27616;51.420;6.788;2023-05-07T04:49:54;5.82;;;3.70;;
41927;SDS011;27616;51.420;6.788;2023-05-07T04:52:20;7.35;;;4.07;;
41927;SDS011;27616;51.420;6.788;2023-05-07T04:54:46;7.78;;;4.25;;
41927;SDS011;27616;51.420;6.788;2023-05-07T04:57:12;7.00;;;4.20;;
41927;SDS011;27616;51.420;6.788;2023-05-07T04:59:38;6.13;;;4.00;;
41927;SDS011;27616;51.420;6.788;2023-05-07T05:02:04;5.75;;;3.55;;
41927;SDS011;27616;51.420;6.788;2023-05-07T05:04:31;8.20;;;4.28;;
41927;SDS011;27616;51.420;6.788;2023-05-07T05:06:57;6.13;;;4.28;;
41927;SDS011;27616;51.420;6.788;2023-05-07T05:09:24;7.28;;;4.55;;
41927;SDS011;27616;51.420;6.788;2023-05-07T05:11:50;9.75;;;4.80;;
41927;SDS011;27616;51.420;6.788;2023-05-07T05:14:15;6.85;;;4.28;;
41927;SDS011;27616;51.420;6.788;2023-05-07T05:16:41;7.60;;;4.45;;
41927;SDS011;27616;51.420;6.788;2023-05-07T05:19:07;8.82;;;5.13;;
41927;SDS011;27616;51.420;6.788;2023-05-07T05:21:36;10.73;;;5.80;;
41927;SDS011;27616;51.420;6.788;2023-05-07T05:24:06;10.68;;;5.63;;
41927;SDS011;27616;51.420;6.788;2023-05-07T05:26:32;9.75;;;4.97;;
41927;SDS011;27616;51.420;6.788;2023-05-07T05:28:58;9.43;;;4.97;;
41927;SDS011;27616;51.420;6.788;2023-05-07T05:31:25;8.25;;;4.82;;
41927;SDS011;27616;51.420;6.788;2023-05-07T05:33:51;7.55;;;4.57;;
41927;SDS011;27616;51.420;6.788;2023-05-07T05:36:17;8.25;;;4.90;;
41927;SDS011;27616;51.420;6.788;2023-05-07T05:38:44;8.75;;;6.10;;
41927;SDS011;27616;51.420;6.788;2023-05-07T05:41:11;9.65;;;5.45;;
41927;SDS011;27616;51.420;6.788;2023-05-07T05:43:37;8.95;;;5.50;;
41927;SDS011;27616;51.420;6.788;2023-05-07T05:46:03;10.68;;;5.85;;
41927;SDS011;27616;51.420;6.788;2023-05-07T05:48:29;10.20;;;6.03;;
41927;SDS011;27616;51.420;6.788;2023-05-07T05:50:57;11.18;;;6.07;;
41927;SDS011;27616;51.420;6.788;2023-05-07T05:53:23;8.75;;;5.60;;
41927;SDS011;27616;51.420;6.788;2023-05-07T05:55:49;9.35;;;5.53;;
41927;SDS011;27616;51.420;6.788;2023-05-07T05:58:15;10.50;;;5.93;;
41927;SDS011;27616;51.420;6.788;2023-05-07T06:00:47;9.50;;;6.07;;
41927;SDS011;27616;51.420;6.788;2023-05-07T06:03:14;9.45;;;5.72;;
41927;SDS011;27616;51.420;6.788;2023-05-07T06:05:41;8.80;;;5.57;;
41927;SDS011;27616;51.420;6.788;2023-05-07T06:08:07;8.80;;;5.68;;
41927;SDS011;27616;51.420;6.788;2023-05-07T06:10:35;12.02;;;5.32;;
41927;SDS011;27616;51.420;6.788;2023-05-07T06:13:04;9.95;;;5.07;;
41927;SDS011;27616;51.420;6.788;2023-05-07T06:15:31;6.22;;;3.70;;
41927;SDS011;27616;51.420;6.788;2023-05-07T06:18:02;8.40;;;4.93;;
41927;SDS011;27616;51.420;6.788;2023-05-07T06:20:28;8.15;;;4.47;;
41927;SDS011;27616;51.420;6.788;2023-05-07T06:22:54;7.93;;;4.72;;
41927;SDS011;27616;51.420;6.788;2023-05-07T06:25:20;8.82;;;4.32;;
41927;SDS011;27616;51.420;6.788;2023-05-07T06:27:45;8.10;;;4.22;;
41927;SDS011;27616;51.420;6.788;2023-05-07T06:30:12;7.45;;;4.55;;
41927;SDS011;27616;51.420;6.788;2023-05-07T06:32:39;6.05;;;3.80;;
41927;SDS011;27616;51.420;6.788;2023-05-07T06:35:06;6.05;;;3.50;;
41927;SDS011;27616;51.420;6.788;2023-05-07T06:40:05;5.32;;;3.40;;
41927;SDS011;27616;51.420;6.788;2023-05-07T06:45:16;6.72;;;3.15;;
41927;SDS011;27616;51.420;6.788;2023-05-07T06:47:42;5.60;;;3.08;;
41927;SDS011;27616;51.420;6.788;2023-05-07T06:50:08;5.88;;;2.97;;
41927;SDS011;27616;51.420;6.788;2023-05-07T06:52:35;5.30;;;2.97;;
41927;SDS011;27616;51.420;6.788;2023-05-07T06:55:01;5.22;;;2.60;;
41927;SDS011;27616;51.420;6.788;2023-05-07T06:57:27;4.93;;;2.63;;
41927;SDS011;27616;51.420;6.788;2023-05-07T06:59:53;5.47;;;2.63;;
41927;SDS011;27616;51.420;6.788;2023-05-07T07:02:19;3.88;;;2.50;;
41927;SDS011;27616;51.420;6.788;2023-05-07T07:04:47;4.63;;;2.72;;
41927;SDS011;27616;51.420;6.788;2023-05-07T07:07:13;7.35;;;2.50;;
41927;SDS011;27616;51.420;6.788;2023-05-07T07:09:41;3.40;;;2.10;;
41927;SDS011;27616;51.420;6.788;2023-05-07T07:12:08;4.55;;;2.28;;
41927;SDS011;27616;51.420;6.788;2023-05-07T07:14:36;3.83;;;2.00;;
41927;SDS011;27616;51.420;6.788;2023-05-07T07:17:02;5.32;;;2.60;;
41927;SDS011;27616;51.420;6.788;2023-05-07T07:19:30;3.70;;;1.92;;
41927;SDS011;27616;51.420;6.788;2023-05-07T07:21:57;4.25;;;2.60;;
41927;SDS011;27616;51.420;6.788;2023-05-07T07:24:23;2.72;;;1.70;;
41927;SDS011;27616;51.420;6.788;2023-05-07T07:26:53;4.70;;;2.05;;
41927;SDS011;27616;51.420;6.788;2023-05-07T07:29:21;3.65;;;1.75;;
41927;SDS011;27616;51.420;6.788;2023-05-07T07:31:48;4.32;;;2.30;;
41927;SDS011;27616;51.420;6.788;2023-05-07T07:34:18;3.50;;;2.05;;
41927;SDS011;27616;51.420;6.788;2023-05-07T07:36:44;6.00;;;2.40;;
41927;SDS011;27616;51.420;6.788;2023-05-07T07:39:10;5.03;;;2.22;;
41927;SDS011;27616;51.420;6.788;2023-05-07T07:41:36;3.53;;;1.80;;
41927;SDS011;27616;51.420;6.788;2023-05-07T07:44:03;2.88;;;1.83;;
41927;SDS011;27616;51.420;6.788;2023-05-07T07:46:33;3.10;;;1.90;;
41927;SDS011;27616;51.420;6.788;2023-05-07T07:49:00;3.65;;;2.00;;
41927;SDS011;27616;51.420;6.788;2023-05-07T07:51:26;4.00;;;2.00;;
41927;SDS011;27616;51.420;6.788;2023-05-07T07:53:52;2.72;;;1.88;;
41927;SDS011;27616;51.420;6.788;2023-05-07T07:56:18;4.75;;;2.40;;
41927;SDS011;27616;51.420;6.788;2023-05-07T07:58:44;6.68;;;2.40;;
41927;SDS011;27616;51.420;6.788;2023-05-07T08:01:10;4.47;;;1.75;;
41927;SDS011;27616;51.420;6.788;2023-05-07T08:03:37;5.53;;;3.10;;
41927;SDS011;27616;51.420;6.788;2023-05-07T08:06:04;4.05;;;2.40;;
41927;SDS011;27616;51.420;6.788;2023-05-07T08:08:32;3.97;;;2.00;;
41927;SDS011;27616;51.420;6.788;2023-05-07T08:10:58;2.83;;;1.50;;
41927;SDS011;27616;51.420;6.788;2023-05-07T08:13:29;2.70;;;1.75;;
41927;SDS011;27616;51.420;6.788;2023-05-07T08:15:55;2.22;;;1.48;;
41927;SDS011;27616;51.420;6.788;2023-05-07T08:18:21;3.38;;;1.92;;
41927;SDS011;27616;51.420;6.788;2023-05-07T08:20:48;2.20;;;1.45;;
41927;SDS011;27616;51.420;6.788;2023-05-07T08:23:17;4.40;;;2.78;;
41927;SDS011;27616;51.420;6.788;2023-05-07T08:25:44;4.03;;;2.05;;
41927;SDS011;27616;51.420;6.788;2023-05-07T08:28:10;1.95;;;1.20;;
41927;SDS011;27616;51.420;6.788;2023-05-07T08:30:37;2.42;;;1.25;;
41927;SDS011;27616;51.420;6.788;2023-05-07T08:33:03;2.72;;;1.23;;
41927;SDS011;27616;51.420;6.788;2023-05-07T08:35:29;3.53;;;1.85;;
41927;SDS011;27616;51.420;6.788;2023-05-07T08:37:55;3.10;;;1.40;;
41927;SDS011;27616;51.420;6.788;2023-05-07T08:40:24;1.40;;;1.20;;
41927;SDS011;27616;51.420;6.788;2023-05-07T08:42:53;1.80;;;1.08;;
41927;SDS011;27616;51.420;6.788;2023-05-07T08:45:19;2.75;;;1.20;;
41927;SDS011;27616;51.420;6.788;2023-05-07T08:47:51;2.10;;;1.10;;
41927;SDS011;27616;51.420;6.788;2023-05-07T08:50:22;1.70;;;1.33;;
41927;SDS011;27616;51.420;6.788;2023-05-07T08:52:49;2.95;;;1.30;;
41927;SDS011;27616;51.420;6.788;2023-05-07T08:55:16;1.98;;;1.17;;
41927;SDS011;27616;51.420;6.788;2023-05-07T08:57:43;1.85;;;1.20;;
41927;SDS011;27616;51.420;6.788;2023-05-07T09:00:10;3.00;;;1.08;;
41927;SDS011;27616;51.420;6.788;2023-05-07T09:02:37;2.70;;;1.17;;
41927;SDS011;27616;51.420;6.788;2023-05-07T09:05:04;4.38;;;1.20;;
41927;SDS011;27616;51.420;6.788;2023-05-07T09:07:31;1.40;;;1.05;;
41927;SDS011;27616;51.420;6.788;2023-05-07T09:09:57;1.85;;;1.13;;
41927;SDS011;27616;51.420;6.788;2023-05-07T09:12:24;1.40;;;0.90;;
41927;SDS011;27616;51.420;6.788;2023-05-07T09:14:50;3.88;;;2.30;;
41927;SDS011;27616;51.420;6.788;2023-05-07T09:17:16;1.23;;;0.95;;
41927;SDS011;27616;51.420;6.788;2023-05-07T09:19:43;1.35;;;0.88;;
41927;SDS011;27616;51.420;6.788;2023-05-07T09:22:14;1.85;;;0.95;;
41927;SDS011;27616;51.420;6.788;2023-05-07T09:24:52;1.67;;;1.10;;
41927;SDS011;27616;51.420;6.788;2023-05-07T09:27:22;4.30;;;2.22;;
41927;SDS011;27616;51.420;6.788;2023-05-07T09:29:48;2.38;;;1.27;;
41927;SDS011;27616;51.420;6.788;2023-05-07T09:32:15;1.27;;;1.00;;
41927;SDS011;27616;51.420;6.788;2023-05-07T09:34:41;1.45;;;1.00;;
41927;SDS011;27616;51.420;6.788;2023-05-07T09:37:07;4.22;;;2.30;;
41927;SDS011;27616;51.420;6.788;2023-05-07T09:39:43;2.53;;;1.20;;
41927;SDS011;27616;51.420;6.788;2023-05-07T09:42:12;1.88;;;1.13;;
41927;SDS011;27616;51.420;6.788;2023-05-07T09:44:40;3.97;;;1.55;;
41927;SDS011;27616;51.420;6.788;2023-05-07T09:47:12;2.00;;;1.40;;
41927;SDS011;27616;51.420;6.788;2023-05-07T09:49:46;2.55;;;1.52;;
41927;SDS011;27616;51.420;6.788;2023-05-07T09:52:14;3.65;;;1.55;;
41927;SDS011;27616;51.420;6.788;2023-05-07T09:54:46;3.15;;;1.60;;
41927;SDS011;27616;51.420;6.788;2023-05-07T09:57:16;3.40;;;1.88;;
41927;SDS011;27616;51.420;6.788;2023-05-07T09:59:47;1.58;;;1.25;;
41927;SDS011;27616;51.420;6.788;2023-05-07T10:02:18;2.70;;;1.20;;
41927;SDS011;27616;51.420;6.788;2023-05-07T10:04:49;2.00;;;1.20;;
41927;SDS011;27616;51.420;6.788;2023-05-07T10:07:20;1.50;;;1.00;;
41927;SDS011;27616;51.420;6.788;2023-05-07T10:09:49;3.90;;;1.80;;
41927;SDS011;27616;51.420;6.788;2023-05-07T10:12:28;1.92;;;1.08;;
41927;SDS011;27616;51.420;6.788;2023-05-07T10:14:55;2.88;;;1.15;;
41927;SDS011;27616;51.420;6.788;2023-05-07T10:17:23;2.63;;;0.80;;
41927;SDS011;27616;51.420;6.788;2023-05-07T10:19:49;2.42;;;1.30;;
41927;SDS011;27616;51.420;6.788;2023-05-07T10:22:16;2.53;;;1.40;;
41927;SDS011;27616;51.420;6.788;2023-05-07T10:27:15;2.65;;;1.10;;
41927;SDS011;27616;51.420;6.788;2023-05-07T10:29:52;1.92;;;1.20;;
41927;SDS011;27616;51.420;6.788;2023-05-07T10:35:00;1.67;;;1.10;;
41927;SDS011;27616;51.420;6.788;2023-05-07T10:37:28;2.47;;;1.63;;
41927;SDS011;27616;51.420;6.788;2023-05-07T10:39:55;2.20;;;1.30;;
41927;SDS011;27616;51.420;6.788;2023-05-07T10:42:23;2.72;;;1.25;;
41927;SDS011;27616;51.420;6.788;2023-05-07T10:44:52;2.13;;;1.00;;
41927;SDS011;27616;51.420;6.788;2023-05-07T10:47:25;1.13;;;1.00;;
41927;SDS011;27616;51.420;6.788;2023-05-07T10:52:30;2.67;;;1.17;;
41927;SDS011;27616;51.420;6.788;2023-05-07T10:57:48;3.45;;;1.40;;
41927;SDS011;27616;51.420;6.788;2023-05-07T11:05:27;2.10;;;1.08;;
41927;SDS011;27616;51.420;6.788;2023-05-07T11:08:12;3.25;;;1.30;;
41927;SDS011;27616;51.420;6.788;2023-05-07T11:10:53;1.67;;;1.20;;
41927;SDS011;27616;51.420;6.788;2023-05-07T11:13:41;3.72;;;1.58;;
41927;SDS011;27616;51.420;6.788;2023-05-07T11:16:30;1.60;;;1.00;;
41927;SDS011;27616;51.420;6.788;2023-05-07T11:25:18;2.50;;;1.20;;
41927;SDS011;27616;51.420;6.788;2023-05-07T11:27:46;3.30;;;1.23;;
41927;SDS011;27616;51.420;6.788;2023-05-07T11:30:19;2.17;;;1.20;;
41927;SDS011;27616;51.420;6.788;2023-05-07T11:32:47;4.22;;;1.30;;
41927;SDS011;27616;51.420;6.788;2023-05-07T11:35:15;3.35;;;1.33;;
41927;SDS011;27616;51.420;6.788;2023-05-07T11:37:42;1.98;;;1.30;;
41927;SDS011;27616;51.420;6.788;2023-05-07T11:40:10;3.42;;;1.02;;
41927;SDS011;27616;51.420;6.788;2023-05-07T11:42:39;2.00;;;1.20;;
41927;SDS011;27616;51.420;6.788;2023-05-07T11:45:07;2.30;;;1.40;;
41927;SDS011;27616;51.420;6.788;2023-05-07T11:47:34;1.98;;;1.33;;
41927;SDS011;27616;51.420;6.788;2023-05-07T11:50:07;2.90;;;1.40;;
41927;SDS011;27616;51.420;6.788;2023-05-07T11:52:33;2.58;;;1.30;;
41927;SDS011;27616;51.420;6.788;2023-05-07T11:55:00;1.92;;;1.20;;
41927;SDS011;27616;51.420;6.788;2023-05-07T11:57:27;4.13;;;1.35;;
41927;SDS011;27616;51.420;6.788;2023-05-07T11:59:56;2.17;;;1.20;;
41927;SDS011;27616;51.420;6.788;2023-05-07T12:02:23;2.22;;;1.30;;
41927;SDS011;27616;51.420;6.788;2023-05-07T12:04:52;2.10;;;1.13;;
41927;SDS011;27616;51.420;6.788;2023-05-07T12:07:18;2.20;;;1.40;;
41927;SDS011;27616;51.420;6.788;2023-05-07T12:09:44;2.38;;;1.20;;
41927;SDS011;27616;51.420;6.788;2023-05-07T12:12:10;1.95;;;1.20;;
41927;SDS011;27616;51.420;6.788;2023-05-07T12:14:40;2.83;;;1.60;;
41927;SDS011;27616;51.420;6.788;2023-05-07T12:17:07;2.45;;;1.10;;
41927;SDS011;27616;51.420;6.788;2023-05-07T12:19:34;2.08;;;1.40;;
41927;SDS011;27616;51.420;6.788;2023-05-07T12:22:01;2.53;;;1.30;;
41927;SDS011;27616;51.420;6.788;2023-05-07T12:24:28;2.60;;;1.38;;
41927;SDS011;27616;51.420;6.788;2023-05-07T12:26:54;2.33;;;1.30;;
41927;SDS011;27616;51.420;6.788;2023-05-07T12:29:23;1.85;;;1.33;;
41927;SDS011;27616;51.420;6.788;2023-05-07T12:31:49;2.13;;;1.20;;
41927;SDS011;27616;51.420;6.788;2023-05-07T12:34:15;1.77;;;1.20;;
41927;SDS011;27616;51.420;6.788;2023-05-07T12:36:41;1.50;;;1.10;;
41927;SDS011;27616;51.420;6.788;2023-05-07T12:39:07;1.55;;;0.90;;
41927;SDS011;27616;51.420;6.788;2023-05-07T12:41:55;2.28;;;1.20;;
41927;SDS011;27616;51.420;6.788;2023-05-07T12:44:23;2.00;;;1.10;;
41927;SDS011;27616;51.420;6.788;2023-05-07T12:47:02;2.55;;;1.40;;
41927;SDS011;27616;51.420;6.788;2023-05-07T12:49:28;3.70;;;1.30;;
41927;SDS011;27616;51.420;6.788;2023-05-07T12:51:54;2.15;;;1.27;;
41927;SDS011;27616;51.420;6.788;2023-05-07T12:57:05;3.08;;;1.35;;
41927;SDS011;27616;51.420;6.788;2023-05-07T12:59:33;3.13;;;1.48;;
41927;SDS011;27616;51.420;6.788;2023-05-07T13:02:03;2.30;;;1.55;;
41927;SDS011;27616;51.420;6.788;2023-05-07T13:04:29;3.17;;;1.90;;
41927;SDS011;27616;51.420;6.788;2023-05-07T13:06:55;3.22;;;1.80;;
41927;SDS011;27616;51.420;6.788;2023-05-07T13:09:21;3.03;;;1.67;;
41927;SDS011;27616;51.420;6.788;2023-05-07T13:11:46;4.75;;;2.30;;
41927;SDS011;27616;51.420;6.788;2023-05-07T13:14:12;3.05;;;1.80;;
41927;SDS011;27616;51.420;6.788;2023-05-07T13:16:38;11.90;;;7.50;;
41927;SDS011;27616;51.420;6.788;2023-05-07T13:19:03;3.95;;;2.17;;
41927;SDS011;27616;51.420;6.788;2023-05-07T13:21:29;2.95;;;1.85;;
41927;SDS011;27616;51.420;6.788;2023-05-07T13:23:57;3.50;;;1.90;;
41927;SDS011;27616;51.420;6.788;2023-05-07T13:26:23;3.15;;;2.03;;
41927;SDS011;27616;51.420;6.788;2023-05-07T13:28:49;3.88;;;2.42;;
41927;SDS011;27616;51.420;6.788;2023-05-07T13:31:16;2.78;;;1.83;;
41927;SDS011;27616;51.420;6.788;2023-05-07T13:33:42;3.13;;;1.77;;
41927;SDS011;27616;51.420;6.788;2023-05-07T13:36:08;3.40;;;2.05;;
41927;SDS011;27616;51.420;6.788;2023-05-07T13:38:34;5.10;;;2.47;;
41927;SDS011;27616;51.420;6.788;2023-05-07T13:41:00;3.92;;;2.28;;
41927;SDS011;27616;51.420;6.788;2023-05-07T13:43:26;2.80;;;1.92;;
41927;SDS011;27616;51.420;6.788;2023-05-07T13:45:51;4.03;;;2.50;;
41927;SDS011;27616;51.420;6.788;2023-05-07T13:48:17;3.33;;;2.03;;
41927;SDS011;27616;51.420;6.788;2023-05-07T13:50:43;3.72;;;2.15;;
41927;SDS011;27616;51.420;6.788;2023-05-07T13:53:08;2.47;;;1.67;;
41927;SDS011;27616;51.420;6.788;2023-05-07T13:55:34;3.83;;;2.03;;
41927;SDS011;27616;51.420;6.788;2023-05-07T13:58:01;3.42;;;2.20;;
41927;SDS011;27616;51.420;6.788;2023-05-07T14:00:28;5.53;;;2.33;;
41927;SDS011;27616;51.420;6.788;2023-05-07T14:02:54;9.15;;;4.45;;
41927;SDS011;27616;51.420;6.788;2023-05-07T14:05:21;6.35;;;3.78;;
41927;SDS011;27616;51.420;6.788;2023-05-07T14:07:53;6.35;;;3.47;;
41927;SDS011;27616;51.420;6.788;2023-05-07T14:10:20;3.67;;;2.40;;
41927;SDS011;27616;51.420;6.788;2023-05-07T14:12:46;6.35;;;2.92;;
41927;SDS011;27616;51.420;6.788;2023-05-07T14:15:13;4.33;;;2.63;;
41927;SDS011;27616;51.420;6.788;2023-05-07T14:17:39;4.32;;;2.70;;
41927;SDS011;27616;51.420;6.788;2023-05-07T14:20:05;5.00;;;2.72;;
41927;SDS011;27616;51.420;6.788;2023-05-07T14:22:32;6.88;;;3.38;;
41927;SDS011;27616;51.420;6.788;2023-05-07T14:24:57;4.60;;;2.80;;
41927;SDS011;27616;51.420;6.788;2023-05-07T14:27:23;6.20;;;3.40;;
41927;SDS011;27616;51.420;6.788;2023-05-07T14:29:49;6.10;;;3.50;;
41927;SDS011;27616;51.420;6.788;2023-05-07T14:32:19;8.27;;;4.15;;
41927;SDS011;27616;51.420;6.788;2023-05-07T14:34:45;8.35;;;4.50;;
41927;SDS011;27616;51.420;6.788;2023-05-07T14:37:11;7.55;;;3.95;;
41927;SDS011;27616;51.420;6.788;2023-05-07T14:39:37;8.10;;;4.18;;
41927;SDS011;27616;51.420;6.788;2023-05-07T14:42:04;7.65;;;4.13;;
41927;SDS011;27616;51.420;6.788;2023-05-07T14:44:30;10.27;;;4.55;;
41927;SDS011;27616;51.420;6.788;2023-05-07T14:46:56;6.45;;;3.97;;
41927;SDS011;27616;51.420;6.788;2023-05-07T14:49:22;6.93;;;4.15;;
41927;SDS011;27616;51.420;6.788;2023-05-07T14:51:48;8.55;;;4.10;;
41927;SDS011;27616;51.420;6.788;2023-05-07T14:54:14;8.15;;;4.55;;
41927;SDS011;27616;51.420;6.788;2023-05-07T14:56:41;8.73;;;4.68;;
41927;SDS011;27616;51.420;6.788;2023-05-07T14:59:07;6.43;;;3.67;;
41927;SDS011;27616;51.420;6.788;2023-05-07T15:01:34;7.50;;;4.20;;
41927;SDS011;27616;51.420;6.788;2023-05-07T15:04:00;7.18;;;4.50;;
41927;SDS011;27616;51.420;6.788;2023-05-07T15:06:28;7.45;;;4.32;;
41927;SDS011;27616;51.420;6.788;2023-05-07T15:08:54;7.72;;;4.20;;
41927;SDS011;27616;51.420;6.788;2023-05-07T15:11:20;6.50;;;3.85;;
41927;SDS011;27616;51.420;6.788;2023-05-07T15:13:45;8.20;;;4.50;;
41927;SDS011;27616;51.420;6.788;2023-05-07T15:16:11;8.73;;;4.68;;
41927;SDS011;27616;51.420;6.788;2023-05-07T15:18:37;9.10;;;4.38;;
41927;SDS011;27616;51.420;6.788;2023-05-07T15:21:03;10.00;;;4.53;;